createdAt,value
2017-08-03T00:02:12.938Z,25.20
2017-08-03T00:04:40.577Z,21.83
2017-08-03T00:07:08.194Z,20.47
2017-08-03T00:09:35.814Z,21.47
2017-08-03T00:12:03.476Z,21.00
2017-08-03T00:14:31.141Z,22.37
2017-08-03T00:16:58.762Z,17.23
2017-08-03T00:19:26.432Z,18.40
2017-08-03T00:21:54.091Z,26.87
2017-08-03T00:24:21.705Z,20.10
2017-08-03T00:26:49.294Z,19.87
2017-08-03T00:29:16.919Z,17.00
2017-08-03T00:31:44.583Z,14.87
2017-08-03T00:34:12.199Z,14.93
2017-08-03T00:36:39.872Z,17.00
2017-08-03T00:39:07.469Z,21.87
2017-08-03T00:41:35.059Z,25.33
2017-08-03T00:44:02.621Z,17.60
2017-08-03T00:46:30.161Z,16.97
2017-08-03T00:48:57.696Z,21.80
2017-08-03T00:51:25.202Z,20.47
2017-08-03T00:53:52.713Z,16.60
2017-08-03T00:56:20.254Z,19.13
2017-08-03T00:58:47.779Z,17.87
2017-08-03T01:01:15.337Z,18.07
2017-08-03T01:03:42.912Z,17.17
2017-08-03T01:06:10.445Z,18.33
2017-08-03T01:08:37.958Z,19.60
2017-08-03T01:11:05.460Z,20.17
2017-08-03T01:13:32.986Z,18.47
2017-08-03T01:16:00.492Z,20.23
2017-08-03T01:18:28.049Z,16.23
2017-08-03T01:20:55.580Z,18.13
2017-08-03T01:23:23.139Z,18.03
2017-08-03T01:25:50.676Z,13.33
2017-08-03T01:28:18.201Z,16.80
2017-08-03T01:30:45.754Z,15.37
2017-08-03T01:33:13.264Z,16.10
2017-08-03T01:35:40.796Z,14.30
2017-08-03T01:38:08.312Z,14.17
2017-08-03T01:40:35.849Z,25.27
2017-08-03T01:43:03.369Z,12.77
2017-08-03T01:45:30.904Z,13.40
2017-08-03T01:47:58.415Z,15.17
2017-08-03T01:50:25.944Z,15.23
2017-08-03T01:52:53.475Z,15.23
2017-08-03T01:55:21.008Z,14.13
2017-08-03T01:57:48.538Z,14.40
2017-08-03T02:00:16.084Z,17.23
2017-08-03T02:02:43.619Z,14.47
2017-08-03T02:05:11.157Z,16.10
2017-08-03T02:07:38.685Z,17.07
2017-08-03T02:10:06.220Z,15.93
2017-08-03T02:12:33.758Z,17.13
2017-08-03T02:15:02.246Z,15.10
2017-08-03T02:17:29.773Z,17.63
2017-08-03T02:19:57.310Z,14.03
2017-08-03T02:22:24.824Z,14.80
2017-08-03T02:24:52.356Z,14.53
2017-08-03T02:27:19.870Z,19.07
2017-08-03T02:29:47.409Z,19.60
2017-08-03T02:32:15.382Z,15.30
2017-08-03T02:34:42.921Z,15.53
2017-08-03T02:37:10.437Z,19.43
2017-08-03T02:39:37.955Z,18.17
2017-08-03T02:42:05.491Z,12.93
2017-08-03T02:44:33.004Z,17.00
2017-08-03T02:47:00.528Z,22.40
2017-08-03T02:49:28.043Z,19.53
2017-08-03T02:51:55.593Z,22.00
2017-08-03T02:54:23.109Z,17.60
2017-08-03T02:56:50.643Z,17.13
2017-08-03T02:59:18.172Z,20.33
2017-08-03T03:01:45.712Z,15.40
2017-08-03T03:04:13.228Z,17.30
2017-08-03T03:06:40.777Z,17.03
2017-08-03T03:09:08.289Z,17.77
2017-08-03T03:11:35.819Z,20.23
2017-08-03T03:14:03.333Z,17.33
2017-08-03T03:16:30.864Z,18.50
2017-08-03T03:18:58.387Z,16.70
2017-08-03T03:21:25.921Z,14.73
2017-08-03T03:23:53.427Z,19.87
2017-08-03T03:26:20.960Z,17.53
2017-08-03T03:28:48.459Z,20.67
2017-08-03T03:31:15.990Z,16.23
2017-08-03T03:33:43.513Z,17.40
2017-08-03T03:36:11.032Z,19.47
2017-08-03T03:38:38.544Z,19.10
2017-08-03T03:41:06.079Z,24.10
2017-08-03T03:43:33.589Z,21.87
2017-08-03T03:46:01.130Z,21.70
2017-08-03T03:48:28.633Z,17.23
2017-08-03T03:50:56.161Z,15.20
2017-08-03T03:53:23.664Z,20.23
2017-08-03T03:55:51.189Z,16.07
2017-08-03T03:58:18.700Z,17.20
2017-08-03T04:00:46.220Z,17.47
2017-08-03T04:03:13.863Z,18.83
2017-08-03T04:05:41.415Z,17.60
2017-08-03T04:08:08.931Z,20.80
2017-08-03T04:10:36.458Z,20.00
2017-08-03T04:13:03.968Z,17.50
2017-08-03T04:15:31.507Z,21.27
2017-08-03T04:17:59.036Z,17.33
2017-08-03T04:20:26.568Z,19.13
2017-08-03T04:22:54.076Z,21.20
2017-08-03T04:25:21.621Z,16.60
2017-08-03T04:27:49.133Z,21.90
2017-08-03T04:30:16.648Z,25.37
2017-08-03T04:32:44.288Z,20.87
2017-08-03T04:35:11.784Z,18.47
2017-08-03T04:37:39.308Z,20.57
2017-08-03T04:40:07.015Z,22.33
2017-08-03T04:42:34.534Z,19.30
2017-08-03T04:45:02.041Z,20.23
2017-08-03T04:47:29.596Z,19.10
2017-08-03T04:49:57.115Z,19.00
2017-08-03T04:52:24.637Z,20.70
2017-08-03T04:54:52.173Z,18.23
2017-08-03T04:57:19.695Z,22.87
2017-08-03T04:59:47.212Z,29.20
2017-08-03T05:02:15.492Z,19.80
2017-08-03T05:04:43.012Z,17.20
2017-08-03T05:07:10.576Z,17.93
2017-08-03T05:09:38.220Z,19.97
2017-08-03T05:12:05.772Z,19.67
2017-08-03T05:14:33.298Z,18.00
2017-08-03T05:17:00.955Z,21.43
2017-08-03T05:19:28.545Z,24.83
2017-08-03T05:21:56.127Z,17.70
2017-08-03T05:24:23.652Z,20.40
2017-08-03T05:26:51.189Z,19.40
2017-08-03T05:29:18.817Z,19.73
2017-08-03T05:31:46.445Z,19.57
2017-08-03T05:34:14.041Z,19.97
2017-08-03T05:36:41.626Z,20.77
2017-08-03T05:39:09.279Z,17.67
2017-08-03T05:41:37.138Z,21.70
2017-08-03T05:44:04.651Z,18.50
2017-08-03T05:46:32.191Z,19.00
2017-08-03T05:48:59.717Z,18.00
2017-08-03T05:51:27.260Z,23.47
2017-08-03T05:53:54.781Z,19.70
2017-08-03T05:56:22.578Z,17.23
2017-08-03T05:58:51.053Z,29.50
2017-08-03T06:01:18.637Z,19.27
2017-08-03T06:03:46.249Z,20.43
2017-08-03T06:06:14.054Z,24.20
2017-08-03T06:08:41.787Z,17.20
2017-08-03T06:11:09.423Z,16.50
2017-08-03T06:13:37.045Z,18.33
2017-08-03T06:16:04.756Z,17.97
2017-08-03T06:18:32.440Z,16.97
2017-08-03T06:21:00.050Z,19.33
2017-08-03T06:23:27.838Z,20.27
2017-08-03T06:25:55.581Z,18.80
2017-08-03T06:28:23.288Z,17.70
2017-08-03T06:30:50.882Z,18.10
2017-08-03T06:33:18.472Z,27.37
2017-08-03T06:35:46.102Z,20.60
2017-08-03T06:38:13.767Z,18.90
2017-08-03T06:40:41.393Z,21.03
2017-08-03T06:43:09.061Z,22.90
2017-08-03T06:45:36.740Z,19.43
2017-08-03T06:48:04.303Z,23.87
2017-08-03T06:50:32.009Z,22.47
2017-08-03T06:52:59.545Z,20.47
2017-08-03T06:55:27.105Z,21.13
2017-08-03T06:57:54.688Z,25.43
2017-08-03T07:00:22.222Z,17.40
2017-08-03T07:02:49.779Z,17.67
2017-08-03T07:05:17.337Z,15.73
2017-08-03T07:07:44.896Z,21.57
2017-08-03T07:10:12.417Z,19.43
2017-08-03T07:12:39.969Z,18.77
2017-08-03T07:15:07.512Z,17.77
2017-08-03T07:17:35.053Z,16.50
2017-08-03T07:20:02.581Z,20.47
2017-08-03T07:22:30.154Z,22.40
2017-08-03T07:24:57.708Z,17.77
2017-08-03T07:27:25.284Z,23.60
2017-08-03T07:29:52.833Z,21.93
2017-08-03T07:32:20.373Z,17.97
2017-08-03T07:34:48.032Z,13.97
2017-08-03T07:37:15.595Z,21.13
2017-08-03T07:39:43.117Z,20.20
2017-08-03T07:42:10.650Z,16.33
2017-08-03T07:44:38.425Z,15.63
2017-08-03T07:47:05.955Z,18.60
2017-08-03T07:49:33.517Z,19.07
2017-08-03T07:52:01.031Z,16.57
2017-08-03T07:54:28.566Z,19.43
2017-08-03T07:56:56.067Z,18.90
2017-08-03T07:59:23.610Z,19.80
2017-08-03T08:01:51.144Z,15.30
2017-08-03T08:04:18.685Z,17.50
2017-08-03T08:06:46.201Z,17.10
2017-08-03T08:09:13.758Z,14.33
2017-08-03T08:11:41.293Z,15.73
2017-08-03T08:14:08.827Z,14.57
2017-08-03T08:16:36.333Z,20.80
2017-08-03T08:19:03.882Z,15.87
2017-08-03T08:21:31.436Z,17.77
2017-08-03T08:23:58.994Z,19.90
2017-08-03T08:26:26.531Z,16.40
2017-08-03T08:28:54.073Z,18.70
2017-08-03T08:31:21.576Z,17.90
2017-08-03T08:33:49.133Z,22.17
2017-08-03T08:36:16.649Z,16.90
2017-08-03T08:38:44.211Z,18.70
2017-08-03T08:41:11.717Z,21.20
2017-08-03T08:43:39.262Z,14.73
2017-08-03T08:46:08.697Z,19.67
2017-08-03T08:48:36.258Z,16.47
2017-08-03T08:51:03.760Z,13.33
2017-08-03T08:53:31.286Z,17.83
2017-08-03T08:55:58.802Z,18.83
2017-08-03T08:58:26.345Z,22.10
2017-08-03T09:00:53.873Z,20.10
2017-08-03T09:03:21.408Z,15.87
2017-08-03T09:05:48.948Z,17.47
2017-08-03T09:08:16.474Z,17.33
2017-08-03T09:10:43.981Z,13.20
2017-08-03T09:13:11.500Z,14.37
2017-08-03T09:15:38.997Z,15.67
2017-08-03T09:18:06.524Z,14.83
2017-08-03T09:20:34.048Z,19.77
2017-08-03T09:23:01.572Z,16.23
2017-08-03T09:25:29.107Z,18.97
2017-08-03T09:27:56.628Z,16.10
2017-08-03T09:30:24.153Z,22.30
2017-08-03T09:32:51.683Z,17.03
2017-08-03T09:35:19.181Z,19.30
2017-08-03T09:37:46.726Z,18.23
2017-08-03T09:40:14.238Z,13.20
2017-08-03T09:42:41.772Z,13.87
2017-08-03T09:45:09.278Z,10.53
2017-08-03T09:47:36.807Z,20.63
2017-08-03T09:50:04.344Z,12.53
2017-08-03T09:52:31.877Z,12.63
2017-08-03T09:54:59.410Z,19.13
2017-08-03T09:57:26.913Z,18.40
2017-08-03T09:59:54.482Z,15.83
2017-08-03T10:02:21.990Z,22.57
2017-08-03T10:04:49.510Z,16.63
2017-08-03T10:07:17.107Z,18.73
2017-08-03T10:09:44.783Z,15.50
2017-08-03T10:12:12.293Z,16.33
2017-08-03T10:14:39.820Z,16.13
2017-08-03T10:17:07.341Z,13.77
2017-08-03T10:19:34.856Z,15.53
2017-08-03T10:22:02.721Z,14.03
2017-08-03T10:24:30.333Z,13.67
2017-08-03T10:26:58.026Z,18.53
2017-08-03T10:29:25.559Z,15.00
2017-08-03T10:31:53.097Z,12.90
2017-08-03T10:34:21.584Z,12.83
2017-08-03T10:36:49.130Z,14.30
2017-08-03T10:39:17.000Z,15.77
2017-08-03T10:41:45.093Z,15.97
2017-08-03T10:44:12.959Z,12.97
2017-08-03T10:46:40.636Z,17.10
2017-08-03T10:49:08.221Z,12.73
2017-08-03T10:51:35.808Z,13.70
2017-08-03T10:54:03.430Z,26.20
2017-08-03T10:56:31.086Z,14.60
2017-08-03T10:58:58.659Z,14.20
2017-08-03T11:01:26.350Z,14.63
2017-08-03T11:03:53.988Z,15.17
2017-08-03T11:06:21.589Z,19.53
2017-08-03T11:08:49.219Z,12.87
2017-08-03T11:11:16.831Z,15.70
2017-08-03T11:13:44.425Z,14.30
2017-08-03T11:16:11.959Z,12.07
2017-08-03T11:18:39.596Z,11.43
2017-08-03T11:21:07.173Z,13.07
2017-08-03T11:23:34.729Z,14.80
2017-08-03T11:26:02.337Z,18.07
2017-08-03T11:28:30.002Z,9.83
2017-08-03T11:30:57.608Z,11.97
2017-08-03T11:33:25.269Z,12.37
2017-08-03T11:35:52.845Z,14.50
2017-08-03T11:38:20.410Z,17.53
2017-08-03T11:40:48.057Z,15.27
2017-08-03T11:43:15.672Z,10.50
2017-08-03T11:45:43.298Z,12.03
2017-08-03T11:48:10.950Z,11.73
2017-08-03T11:50:38.881Z,11.57
2017-08-03T11:53:06.530Z,7.87
2017-08-03T11:55:40.839Z,12.40
2017-08-03T11:58:08.482Z,12.03
2017-08-03T12:00:36.132Z,13.60
2017-08-03T12:03:03.769Z,11.20
2017-08-03T12:05:31.358Z,9.60
2017-08-03T12:07:58.980Z,9.30
2017-08-03T12:10:26.561Z,9.30
2017-08-03T12:12:54.175Z,9.50
2017-08-03T12:15:21.742Z,10.37
2017-08-03T12:17:49.359Z,11.77
2017-08-03T12:20:16.935Z,12.33
2017-08-03T12:22:44.627Z,11.10
2017-08-03T12:25:12.267Z,13.93
2017-08-03T12:27:40.003Z,13.93
2017-08-03T12:30:07.621Z,11.90
2017-08-03T12:32:35.237Z,14.60
2017-08-03T12:35:02.856Z,14.03
2017-08-03T12:37:38.396Z,16.93
2017-08-03T12:40:05.944Z,11.73
2017-08-03T12:42:33.485Z,12.87
2017-08-03T12:45:01.011Z,19.77
2017-08-03T12:47:28.610Z,11.60
2017-08-03T12:49:56.115Z,19.27
2017-08-03T12:52:23.656Z,15.50
2017-08-03T12:54:51.214Z,12.37
2017-08-03T12:57:18.737Z,19.00
2017-08-03T12:59:46.262Z,18.20
2017-08-03T13:02:13.782Z,13.40
2017-08-03T13:04:41.318Z,20.17
2017-08-03T13:07:08.834Z,12.90
2017-08-03T13:09:36.387Z,13.00
2017-08-03T13:12:03.910Z,10.30
2017-08-03T13:14:31.447Z,13.93
2017-08-03T13:16:58.957Z,14.77
2017-08-03T13:19:26.497Z,13.97
2017-08-03T13:21:54.017Z,18.77
2017-08-03T13:24:21.569Z,15.67
2017-08-03T13:26:49.094Z,14.00
2017-08-03T13:29:16.657Z,14.90
2017-08-03T13:31:44.178Z,20.27
2017-08-03T13:34:11.709Z,15.80
2017-08-03T13:36:39.309Z,14.17
2017-08-03T13:39:14.713Z,17.30
2017-08-03T13:41:42.238Z,10.20
2017-08-03T13:44:09.832Z,11.93
2017-08-03T13:46:37.363Z,11.70
2017-08-03T13:49:04.982Z,20.47
2017-08-03T13:51:32.521Z,14.37
2017-08-03T13:54:00.065Z,12.77
2017-08-03T13:56:27.600Z,13.40
2017-08-03T13:58:55.143Z,12.80
2017-08-03T14:01:22.709Z,15.87
2017-08-03T14:03:50.285Z,11.30
2017-08-03T14:06:17.833Z,13.80
2017-08-03T14:08:45.388Z,12.80
2017-08-03T14:11:12.908Z,12.03
2017-08-03T14:13:40.457Z,12.53
2017-08-03T14:16:08.011Z,12.33
2017-08-03T14:18:35.552Z,18.07
2017-08-03T14:21:03.074Z,18.13
2017-08-03T14:23:30.649Z,11.23
2017-08-03T14:25:58.168Z,12.47
2017-08-03T14:28:25.721Z,13.10
2017-08-03T14:30:53.239Z,12.03
2017-08-03T14:33:20.774Z,9.10
2017-08-03T14:35:48.281Z,10.60
2017-08-03T14:38:21.485Z,14.40
2017-08-03T14:40:49.006Z,10.53
2017-08-03T14:43:16.537Z,11.10
2017-08-03T14:45:44.060Z,10.53
2017-08-03T14:48:11.606Z,13.50
2017-08-03T14:50:39.132Z,15.13
2017-08-03T14:53:06.693Z,13.30
2017-08-03T14:55:34.200Z,11.03
2017-08-03T14:58:01.767Z,13.60
2017-08-03T15:00:29.284Z,9.97
2017-08-03T15:02:56.815Z,11.60
2017-08-03T15:05:24.331Z,13.33
2017-08-03T15:07:51.894Z,11.83
2017-08-03T15:10:19.417Z,12.00
2017-08-03T15:12:46.966Z,9.20
2017-08-03T15:15:14.513Z,12.63
2017-08-03T15:17:42.074Z,9.57
2017-08-03T15:20:09.649Z,14.57
2017-08-03T15:22:37.183Z,13.97
2017-08-03T15:25:04.702Z,10.37
2017-08-03T15:27:32.251Z,10.17
2017-08-03T15:29:59.773Z,10.47
2017-08-03T15:32:28.129Z,12.77
2017-08-03T15:34:55.737Z,10.17
2017-08-03T15:37:23.318Z,9.50
2017-08-03T15:39:50.869Z,14.07
2017-08-03T15:42:18.479Z,13.07
2017-08-03T15:44:46.099Z,9.90
2017-08-03T15:47:13.711Z,12.17
2017-08-03T15:49:41.322Z,9.40
2017-08-03T15:52:08.885Z,18.03
2017-08-03T15:54:36.467Z,13.57
2017-08-03T15:57:04.046Z,11.30
2017-08-03T15:59:31.565Z,12.00
2017-08-03T16:01:59.190Z,14.10
2017-08-03T16:04:26.790Z,11.00
2017-08-03T16:06:54.399Z,13.57
2017-08-03T16:09:21.969Z,14.10
2017-08-03T16:11:49.525Z,12.20
2017-08-03T16:14:17.081Z,12.20
2017-08-03T16:16:44.569Z,14.90
2017-08-03T16:19:15.947Z,13.67
2017-08-03T16:21:43.448Z,14.10
2017-08-03T16:24:10.981Z,11.00
2017-08-03T16:26:38.504Z,11.73
2017-08-03T16:29:06.032Z,10.30
2017-08-03T16:31:33.537Z,13.20
2017-08-03T16:34:01.053Z,12.40
2017-08-03T16:36:28.545Z,11.60
2017-08-03T16:38:56.101Z,10.70
2017-08-03T16:41:33.953Z,13.63
2017-08-03T16:44:13.574Z,17.17
2017-08-03T16:46:41.201Z,12.43
2017-08-03T16:49:08.809Z,12.13
2017-08-03T16:51:36.415Z,14.97
2017-08-03T16:54:04.102Z,9.70
2017-08-03T16:56:31.657Z,10.57
2017-08-03T16:58:59.235Z,7.67
2017-08-03T17:01:26.899Z,8.73
2017-08-03T17:04:02.386Z,12.53
2017-08-03T17:06:30.064Z,11.13
2017-08-03T17:08:57.693Z,9.00
2017-08-03T17:11:41.918Z,10.87
2017-08-03T17:14:12.565Z,10.97
2017-08-03T17:16:40.113Z,14.03
2017-08-03T17:19:07.838Z,8.00
2017-08-03T17:21:35.393Z,10.20
2017-08-03T17:24:03.001Z,10.97
2017-08-03T17:26:30.671Z,15.17
2017-08-03T17:28:58.272Z,9.13
2017-08-03T17:31:25.889Z,11.20
2017-08-03T17:33:53.534Z,15.27
2017-08-03T17:36:21.167Z,7.87
2017-08-03T17:38:48.782Z,16.43
2017-08-03T17:41:16.437Z,15.20
2017-08-03T17:43:44.048Z,10.20
2017-08-03T17:46:11.631Z,14.90
2017-08-03T17:48:39.248Z,12.27
2017-08-03T17:51:06.909Z,13.17
2017-08-03T17:53:34.531Z,13.70
2017-08-03T17:56:02.372Z,13.27
2017-08-03T17:58:30.348Z,11.43
2017-08-03T18:00:58.512Z,13.43
2017-08-03T18:03:27.559Z,13.70
2017-08-03T18:05:57.473Z,15.00
2017-08-03T18:08:25.327Z,16.57
2017-08-03T18:10:53.137Z,12.13
2017-08-03T18:13:21.147Z,13.53
2017-08-03T18:15:48.968Z,11.93
2017-08-03T18:18:16.909Z,11.93
2017-08-03T18:20:46.890Z,13.30
2017-08-03T18:23:17.708Z,11.50
2017-08-03T18:25:46.106Z,10.70
2017-08-03T18:28:14.703Z,17.50
2017-08-03T18:30:42.525Z,9.37
2017-08-03T18:33:12.004Z,12.10
2017-08-03T18:35:40.776Z,13.40
2017-08-03T18:38:26.427Z,13.40
2017-08-03T18:40:54.019Z,9.13
2017-08-03T18:43:21.580Z,10.20
2017-08-03T18:45:49.099Z,9.97
2017-08-03T18:48:16.674Z,10.97
2017-08-03T18:50:44.253Z,12.80
2017-08-03T18:53:11.788Z,9.77
2017-08-03T18:55:39.357Z,9.53
2017-08-03T18:58:06.877Z,16.90
2017-08-03T19:00:34.395Z,14.83
2017-08-03T19:03:01.948Z,11.43
2017-08-03T19:05:29.486Z,12.67
2017-08-03T19:07:57.911Z,9.27
2017-08-03T19:10:25.470Z,17.10
2017-08-03T19:12:53.009Z,13.10
2017-08-03T19:15:20.523Z,12.10
2017-08-03T19:17:48.150Z,14.93
2017-08-03T19:20:15.675Z,11.93
2017-08-03T19:22:43.978Z,14.00
2017-08-03T19:25:19.442Z,16.33
2017-08-03T19:27:47.054Z,14.90
2017-08-03T19:30:14.687Z,9.10
2017-08-03T19:32:42.316Z,19.07
2017-08-03T19:35:09.879Z,21.17
2017-08-03T19:37:37.446Z,13.13
2017-08-03T19:40:05.006Z,12.27
2017-08-03T19:42:32.556Z,15.23
2017-08-03T19:45:00.089Z,12.10
2017-08-03T19:47:27.690Z,17.20
2017-08-03T19:49:55.214Z,11.17
2017-08-03T19:52:22.807Z,12.20
2017-08-03T19:54:50.386Z,12.63
2017-08-03T19:57:17.929Z,10.50
2017-08-03T19:59:45.501Z,13.57
2017-08-03T20:02:13.062Z,13.80
2017-08-03T20:04:40.665Z,12.40
2017-08-03T20:07:17.975Z,14.37
2017-08-03T20:09:57.375Z,12.90
2017-08-03T20:12:24.902Z,13.20
2017-08-03T20:14:52.451Z,11.13
2017-08-03T20:17:20.065Z,9.53
2017-08-03T20:19:47.589Z,8.70
2017-08-03T20:22:15.140Z,8.47
2017-08-03T20:24:43.020Z,12.27
2017-08-03T20:27:10.597Z,14.47
2017-08-03T20:29:38.126Z,11.77
2017-08-03T20:32:05.792Z,19.43
2017-08-03T20:34:33.326Z,18.00
2017-08-03T20:37:00.882Z,9.13
2017-08-03T20:39:28.457Z,7.67
2017-08-03T20:41:56.002Z,13.90
2017-08-03T20:44:23.527Z,9.40
2017-08-03T20:46:51.050Z,11.27
2017-08-03T20:49:18.545Z,10.27
2017-08-03T20:51:46.087Z,10.83
2017-08-03T20:54:13.634Z,7.47
2017-08-03T20:56:41.155Z,7.60
2017-08-03T20:59:08.715Z,12.37
2017-08-03T21:01:36.274Z,10.37
2017-08-03T21:04:03.889Z,5.90
2017-08-03T21:06:31.431Z,9.77
2017-08-03T21:08:58.974Z,7.47
2017-08-03T21:11:26.516Z,11.20
2017-08-03T21:13:57.790Z,9.43
2017-08-03T21:16:26.406Z,8.87
2017-08-03T21:18:53.934Z,10.33
2017-08-03T21:21:21.457Z,8.17
2017-08-03T21:23:49.017Z,7.83
2017-08-03T21:26:16.537Z,10.87
2017-08-03T21:28:44.044Z,6.33
2017-08-03T21:31:11.593Z,4.57
2017-08-03T21:33:39.149Z,7.57
2017-08-03T21:36:06.678Z,8.20
2017-08-03T21:38:35.274Z,6.50
2017-08-03T21:41:02.789Z,5.33
2017-08-03T21:43:30.345Z,4.60
2017-08-03T21:45:57.875Z,8.67
2017-08-03T21:48:25.452Z,10.50
2017-08-03T21:50:52.969Z,4.73
2017-08-03T21:53:20.491Z,9.23
2017-08-03T21:55:48.034Z,10.07
2017-08-03T21:58:15.553Z,6.80
2017-08-03T22:00:54.771Z,4.77
2017-08-03T22:03:22.286Z,10.27
2017-08-03T22:05:49.805Z,7.20
2017-08-03T22:08:17.314Z,11.10
2017-08-03T22:10:44.813Z,5.43
2017-08-03T22:13:12.333Z,5.73
2017-08-03T22:15:39.857Z,4.93
2017-08-03T22:18:07.373Z,5.20
2017-08-03T22:20:34.869Z,3.97
2017-08-03T22:23:02.370Z,5.63
2017-08-03T22:25:29.892Z,4.47
2017-08-03T22:27:57.596Z,4.10
2017-08-03T22:30:25.112Z,4.97
2017-08-03T22:32:52.610Z,3.80
2017-08-03T22:35:20.124Z,5.43
2017-08-03T22:37:47.627Z,5.77
2017-08-03T22:40:15.137Z,5.50
2017-08-03T22:42:42.638Z,4.87
2017-08-03T22:45:10.133Z,4.00
2017-08-03T22:47:38.389Z,5.87
2017-08-03T22:50:05.904Z,4.40
2017-08-03T22:52:33.425Z,3.40
2017-08-03T22:55:00.924Z,3.50
2017-08-03T22:57:28.427Z,3.20
2017-08-03T22:59:55.938Z,7.83
2017-08-03T23:02:23.432Z,5.93
2017-08-03T23:04:50.949Z,3.77
2017-08-03T23:07:18.437Z,3.30
2017-08-03T23:09:45.925Z,3.73
2017-08-03T23:12:13.432Z,4.90
2017-08-03T23:14:40.937Z,4.33
2017-08-03T23:17:08.446Z,6.10
2017-08-03T23:19:35.945Z,3.43
2017-08-03T23:22:03.468Z,4.37
2017-08-03T23:24:30.962Z,3.87
2017-08-03T23:26:59.323Z,2.83
2017-08-03T23:29:26.841Z,3.97
2017-08-03T23:31:54.410Z,6.90
2017-08-03T23:34:21.929Z,3.33
2017-08-03T23:36:49.425Z,4.37
2017-08-03T23:39:16.934Z,3.37
2017-08-03T23:41:44.444Z,5.83
2017-08-03T23:44:11.948Z,4.93
2017-08-03T23:46:39.465Z,3.20
2017-08-03T23:49:06.952Z,2.93
2017-08-03T23:51:34.453Z,8.50
2017-08-03T23:54:01.968Z,2.87
2017-08-03T23:56:29.470Z,5.47
2017-08-03T23:58:56.990Z,4.53
